Flight Track Log - Related Links

Times and Time Zones

All times are in EDT time to prevent confusion due to time zone crossing. See the ASQ4209 flight status page for this flight to view local times or setup timezone preferences in your user account.

Time Position Orientation Groundspeed Altitude Reporting Facility
EDT Latitude Longitude Course Direction KTS MPH feet Rate Location/Type
Wed 08:29:59 PM 29.9617 -95.3436 105° East 150 173 800  Level Houston Center
Wed 08:30:29 PM 29.9550 -95.3156 105° East 179 206 1,700 1,417 Climbing Houston Center
Wed 08:31:11 PM 29.9492 -95.2769 100° East 197 227 2,500 1,340 Climbing Houston Center
Wed 08:32:12 PM 29.9439 -95.2003 95° East 241 277 4,000 780 Climbing Houston Center
Wed 08:33:14 PM 29.9486 -95.1250 86° East 236 272 4,100 1,258 Climbing Houston Center
Wed 08:34:16 PM 29.9542 -95.0453 85° East 246 283 6,600 2,293 Climbing Houston Center
Wed 08:35:17 PM 29.9600 -94.9642 85° East 252 290 8,800 1,854 Climbing Houston Center
Wed 08:36:19 PM 29.9669 -94.8758 85° East 271 312 10,400 1,403 Climbing Houston Center
Wed 08:37:21 PM 29.9750 -94.7539 86° East 319 367 11,700 1,306 Climbing Houston Center
Wed 08:38:23 PM 29.9825 -94.6450 85° East 338 389 13,100 1,317 Climbing Houston Center
Wed 08:39:24 PM 29.9881 -94.5339 87° East 345 397 14,400 1,171 Climbing Houston Center
Wed 08:40:26 PM 29.9925 -94.4194 87° East 353 406 15,500 1,113 Climbing Houston Center
Wed 08:41:28 PM 29.9967 -94.3042 88° East 360 414 16,700 1,024 Climbing Houston Center
Wed 08:42:29 PM 30.0100 -94.1894 82° East 361 415 17,600 780 Climbing Houston Center
Wed 08:43:31 PM 30.0242 -94.0725 82° East 367 422 18,300 871 Climbing Houston Center
Wed 08:44:33 PM 30.0253 -93.9269 89° East 377 434 19,400 1,220 Climbing Houston Center
Wed 08:45:34 PM 30.0267 -93.8075 89° East 378 435 20,800 1,366 Climbing Houston Center
Wed 08:46:36 PM 30.0272 -93.6892 90° East 373 429 22,200 1,065 Climbing Houston Center
Wed 08:47:38 PM 30.0267 -93.5719 90° East 371 427 23,000 387 Climbing Houston Center
Wed 08:48:40 PM 30.0328 -93.4472 87° East 395 455 23,000  Level Houston Center
Wed 08:49:41 PM 30.0661 -93.2950 76° East 412 474 23,000  Level Houston Center
Wed 08:50:43 PM 30.0953 -93.1633 76° East 425 489 23,000  Level Houston Center
Wed 08:51:45 PM 30.1239 -93.0303 76° East 430 495 23,000  Level Houston Center
Wed 08:52:47 PM 30.1531 -92.8964 76° East 431 496 23,000  Level Houston Center
Wed 08:53:48 PM 30.1825 -92.7597 76° East 437 503 23,000  Level Houston Center
Wed 08:54:50 PM 30.2117 -92.6247 76° East 437 503 23,000  Level Houston Center
Wed 08:55:51 PM 30.2406 -92.4944 76° East 426 490 23,000  Level Houston Center
Wed 08:56:53 PM 30.2700 -92.3403 77° East 413 475 23,000 -1,122 Level Houston Center
Wed 08:57:54 PM 30.2958 -92.2169 76° East 416 479 20,700 -2,537 Descending Houston Center
Wed 08:58:56 PM 30.3236 -92.0883 76° East 416 479 17,800 -3,122 Descending Houston Center
Wed 08:59:57 PM 30.3492 -91.9672 76° East 395 455 14,300 -3,317 Descending Houston Center
Wed 09:00:59 PM 30.3756 -91.8353 77° East 356 410 11,000 -1,610 Descending Houston Center
Wed 09:02:00 PM 30.3978 -91.7261 77° East 352 405 11,000 -146 Level Houston Center
Wed 09:03:02 PM 30.4158 -91.6311 78° East 339 390 10,700 -780 Descending Houston Center
Wed 09:04:03 PM 30.4086 -91.5394 95° East 287 330 9,400 -1,756 Descending Houston Center
Wed 09:05:05 PM 30.4039 -91.4556 94° East 263 303 7,100 -2,488 Descending Houston Center
Wed 09:06:06 PM 30.4058 -91.3708 88° East 246 283 4,300 -2,066 Descending Houston Center
Wed 09:07:07 PM 30.4308 -91.2953 69° East 226 260 2,900 -1,377 Descending Houston Center

Login

Don't have an account? Register now (free) for customized features, flight alerts, and more!